sensor_id;sensor_type;location;lat;lon;timestamp;temperature;humidity
20174;DHT22;10246;50.620;7.232;2024-01-15T00:00:14;3.30;5.90
20174;DHT22;10246;50.620;7.232;2024-01-15T00:02:40;3.50;5.70
20174;DHT22;10246;50.620;7.232;2024-01-15T00:05:07;3.40;5.60
20174;DHT22;10246;50.620;7.232;2024-01-15T00:07:35;3.40;5.90
20174;DHT22;10246;50.620;7.232;2024-01-15T00:10:03;3.40;6.30
20174;DHT22;10246;50.620;7.232;2024-01-15T00:12:31;3.50;5.80
20174;DHT22;10246;50.620;7.232;2024-01-15T00:14:58;3.60;5.10
20174;DHT22;10246;50.620;7.232;2024-01-15T00:17:24;3.60;3.50
20174;DHT22;10246;50.620;7.232;2024-01-15T00:19:51;3.70;2.70
20174;DHT22;10246;50.620;7.232;2024-01-15T00:22:18;3.70;2.40
20174;DHT22;10246;50.620;7.232;2024-01-15T00:24:45;3.60;3.10
20174;DHT22;10246;50.620;7.232;2024-01-15T00:27:13;3.60;2.80
20174;DHT22;10246;50.620;7.232;2024-01-15T00:29:39;3.60;3.50
20174;DHT22;10246;50.620;7.232;2024-01-15T00:32:06;3.60;2.70
20174;DHT22;10246;50.620;7.232;2024-01-15T00:34:33;3.60;2.10
20174;DHT22;10246;50.620;7.232;2024-01-15T00:36:59;3.60;2.80
20174;DHT22;10246;50.620;7.232;2024-01-15T00:39:26;3.60;3.00
20174;DHT22;10246;50.620;7.232;2024-01-15T00:41:53;3.60;3.80
20174;DHT22;10246;50.620;7.232;2024-01-15T00:44:21;3.50;3.90
20174;DHT22;10246;50.620;7.232;2024-01-15T00:46:48;3.40;4.70
20174;DHT22;10246;50.620;7.232;2024-01-15T00:49:15;3.40;5.70
20174;DHT22;10246;50.620;7.232;2024-01-15T00:51:42;3.30;7.00
20174;DHT22;10246;50.620;7.232;2024-01-15T00:54:09;3.30;8.20
20174;DHT22;10246;50.620;7.232;2024-01-15T00:56:36;3.20;9.00
20174;DHT22;10246;50.620;7.232;2024-01-15T00:59:03;3.20;9.60
20174;DHT22;10246;50.620;7.232;2024-01-15T01:01:31;3.10;9.50
20174;DHT22;10246;50.620;7.232;2024-01-15T01:03:58;3.10;10.40
20174;DHT22;10246;50.620;7.232;2024-01-15T01:06:25;3.10;11.20
20174;DHT22;10246;50.620;7.232;2024-01-15T01:08:52;3.00;12.70
20174;DHT22;10246;50.620;7.232;2024-01-15T01:11:18;2.80;13.80
20174;DHT22;10246;50.620;7.232;2024-01-15T01:13:45;2.80;14.90
20174;DHT22;10246;50.620;7.232;2024-01-15T01:16:12;2.70;15.60
20174;DHT22;10246;50.620;7.232;2024-01-15T01:18:40;2.70;15.70
20174;DHT22;10246;50.620;7.232;2024-01-15T01:21:07;2.60;16.40
20174;DHT22;10246;50.620;7.232;2024-01-15T01:23:33;2.60;16.30
20174;DHT22;10246;50.620;7.232;2024-01-15T01:26:00;2.60;16.20
20174;DHT22;10246;50.620;7.232;2024-01-15T01:28:28;2.60;16.40
20174;DHT22;10246;50.620;7.232;2024-01-15T01:30:54;2.60;16.30
20174;DHT22;10246;50.620;7.232;2024-01-15T01:33:21;2.70;16.50
20174;DHT22;10246;50.620;7.232;2024-01-15T01:35:49;2.70;16.20
20174;DHT22;10246;50.620;7.232;2024-01-15T01:38:16;2.70;15.90
20174;DHT22;10246;50.620;7.232;2024-01-15T01:40:42;2.70;15.80
20174;DHT22;10246;50.620;7.232;2024-01-15T01:43:09;2.70;15.20
20174;DHT22;10246;50.620;7.232;2024-01-15T01:45:37;2.70;14.30
20174;DHT22;10246;50.620;7.232;2024-01-15T01:48:05;2.70;14.60
20174;DHT22;10246;50.620;7.232;2024-01-15T01:50:31;2.80;14.30
20174;DHT22;10246;50.620;7.232;2024-01-15T01:53:00;2.80;13.70
20174;DHT22;10246;50.620;7.232;2024-01-15T01:55:29;2.80;13.20
20174;DHT22;10246;50.620;7.232;2024-01-15T01:57:58;2.80;13.30
20174;DHT22;10246;50.620;7.232;2024-01-15T02:00:26;2.90;13.90
20174;DHT22;10246;50.620;7.232;2024-01-15T02:02:52;2.90;13.70
20174;DHT22;10246;50.620;7.232;2024-01-15T02:05:20;2.90;13.60
20174;DHT22;10246;50.620;7.232;2024-01-15T02:07:47;2.80;13.70
20174;DHT22;10246;50.620;7.232;2024-01-15T02:10:15;2.80;13.80
20174;DHT22;10246;50.620;7.232;2024-01-15T02:12:42;2.80;14.00
20174;DHT22;10246;50.620;7.232;2024-01-15T02:15:09;2.80;14.20
20174;DHT22;10246;50.620;7.232;2024-01-15T02:17:56;2.80;13.50
20174;DHT22;10246;50.620;7.232;2024-01-15T02:20:23;2.80;13.00
20174;DHT22;10246;50.620;7.232;2024-01-15T02:22:50;2.80;13.10
20174;DHT22;10246;50.620;7.232;2024-01-15T02:25:19;2.90;12.80
20174;DHT22;10246;50.620;7.232;2024-01-15T02:27:46;2.90;12.80
20174;DHT22;10246;50.620;7.232;2024-01-15T02:30:13;2.90;11.80
20174;DHT22;10246;50.620;7.232;2024-01-15T02:32:40;3.00;10.60
20174;DHT22;10246;50.620;7.232;2024-01-15T02:35:07;3.00;11.00
20174;DHT22;10246;50.620;7.232;2024-01-15T02:37:34;3.00;11.10
20174;DHT22;10246;50.620;7.232;2024-01-15T02:40:00;3.00;11.00
20174;DHT22;10246;50.620;7.232;2024-01-15T02:42:29;3.00;10.50
20174;DHT22;10246;50.620;7.232;2024-01-15T02:44:55;3.10;10.70
20174;DHT22;10246;50.620;7.232;2024-01-15T02:47:22;3.10;11.20
20174;DHT22;10246;50.620;7.232;2024-01-15T02:49:49;3.00;11.90
20174;DHT22;10246;50.620;7.232;2024-01-15T02:52:15;3.00;12.30
20174;DHT22;10246;50.620;7.232;2024-01-15T02:54:42;3.00;12.70
20174;DHT22;10246;50.620;7.232;2024-01-15T02:57:09;3.00;13.40
20174;DHT22;10246;50.620;7.232;2024-01-15T02:59:37;3.00;13.50
20174;DHT22;10246;50.620;7.232;2024-01-15T03:02:04;2.90;13.90
20174;DHT22;10246;50.620;7.232;2024-01-15T03:04:30;2.90;14.30
20174;DHT22;10246;50.620;7.232;2024-01-15T03:06:57;2.90;14.20
20174;DHT22;10246;50.620;7.232;2024-01-15T03:09:24;2.90;14.00
20174;DHT22;10246;50.620;7.232;2024-01-15T03:11:50;2.90;14.20
20174;DHT22;10246;50.620;7.232;2024-01-15T03:14:17;2.90;14.50
20174;DHT22;10246;50.620;7.232;2024-01-15T03:16:45;2.90;13.90
20174;DHT22;10246;50.620;7.232;2024-01-15T03:19:12;2.90;13.70
20174;DHT22;10246;50.620;7.232;2024-01-15T03:21:38;2.90;13.40
20174;DHT22;10246;50.620;7.232;2024-01-15T03:24:05;3.00;13.40
20174;DHT22;10246;50.620;7.232;2024-01-15T03:26:32;2.90;13.60
20174;DHT22;10246;50.620;7.232;2024-01-15T03:28:59;3.00;13.30
20174;DHT22;10246;50.620;7.232;2024-01-15T03:31:25;3.00;13.00
20174;DHT22;10246;50.620;7.232;2024-01-15T03:33:53;3.00;13.10
20174;DHT22;10246;50.620;7.232;2024-01-15T03:36:20;2.90;12.90
20174;DHT22;10246;50.620;7.232;2024-01-15T03:38:47;2.90;13.00
20174;DHT22;10246;50.620;7.232;2024-01-15T03:41:14;2.90;13.10
20174;DHT22;10246;50.620;7.232;2024-01-15T03:43:40;2.90;13.40
20174;DHT22;10246;50.620;7.232;2024-01-15T03:46:07;2.90;13.50
20174;DHT22;10246;50.620;7.232;2024-01-15T03:48:34;2.90;13.40
20174;DHT22;10246;50.620;7.232;2024-01-15T03:51:02;2.90;13.20
20174;DHT22;10246;50.620;7.232;2024-01-15T03:53:29;2.80;13.10
20174;DHT22;10246;50.620;7.232;2024-01-15T03:55:56;2.80;13.30
20174;DHT22;10246;50.620;7.232;2024-01-15T03:58:23;2.80;13.70
20174;DHT22;10246;50.620;7.232;2024-01-15T04:00:49;2.80;14.20
20174;DHT22;10246;50.620;7.232;2024-01-15T04:03:16;2.80;14.10
20174;DHT22;10246;50.620;7.232;2024-01-15T04:05:43;2.70;13.70
20174;DHT22;10246;50.620;7.232;2024-01-15T04:08:11;2.70;13.80
20174;DHT22;10246;50.620;7.232;2024-01-15T04:10:38;2.70;13.70
20174;DHT22;10246;50.620;7.232;2024-01-15T04:13:05;2.60;13.90
20174;DHT22;10246;50.620;7.232;2024-01-15T04:15:31;2.60;13.80
20174;DHT22;10246;50.620;7.232;2024-01-15T04:17:58;2.60;13.80
20174;DHT22;10246;50.620;7.232;2024-01-15T04:20:26;2.60;13.10
20174;DHT22;10246;50.620;7.232;2024-01-15T04:22:53;2.60;13.60
20174;DHT22;10246;50.620;7.232;2024-01-15T04:25:21;2.60;13.50
20174;DHT22;10246;50.620;7.232;2024-01-15T04:27:48;2.60;13.80
20174;DHT22;10246;50.620;7.232;2024-01-15T04:30:14;2.60;13.70
20174;DHT22;10246;50.620;7.232;2024-01-15T04:32:41;2.60;13.90
20174;DHT22;10246;50.620;7.232;2024-01-15T04:35:08;2.50;14.10
20174;DHT22;10246;50.620;7.232;2024-01-15T04:37:35;2.50;14.70
20174;DHT22;10246;50.620;7.232;2024-01-15T04:40:02;2.50;14.80
20174;DHT22;10246;50.620;7.232;2024-01-15T04:42:30;2.60;14.60
20174;DHT22;10246;50.620;7.232;2024-01-15T04:44:57;2.50;14.50
20174;DHT22;10246;50.620;7.232;2024-01-15T04:47:24;2.50;14.60
20174;DHT22;10246;50.620;7.232;2024-01-15T04:49:51;2.50;14.80
20174;DHT22;10246;50.620;7.232;2024-01-15T04:52:17;2.50;14.70
20174;DHT22;10246;50.620;7.232;2024-01-15T04:54:44;2.50;14.60
20174;DHT22;10246;50.620;7.232;2024-01-15T04:57:11;2.50;14.50
20174;DHT22;10246;50.620;7.232;2024-01-15T04:59:39;2.50;14.30
20174;DHT22;10246;50.620;7.232;2024-01-15T05:02:06;2.50;14.70
20174;DHT22;10246;50.620;7.232;2024-01-15T05:04:32;2.50;15.10
20174;DHT22;10246;50.620;7.232;2024-01-15T05:06:59;2.50;15.50
20174;DHT22;10246;50.620;7.232;2024-01-15T05:09:26;2.40;15.90
20174;DHT22;10246;50.620;7.232;2024-01-15T05:11:53;2.50;15.70
20174;DHT22;10246;50.620;7.232;2024-01-15T05:14:19;2.40;15.60
20174;DHT22;10246;50.620;7.232;2024-01-15T05:16:50;2.40;15.60
20174;DHT22;10246;50.620;7.232;2024-01-15T05:19:18;2.40;16.00
20174;DHT22;10246;50.620;7.232;2024-01-15T05:21:45;2.50;16.00
20174;DHT22;10246;50.620;7.232;2024-01-15T05:24:12;2.50;15.80
20174;DHT22;10246;50.620;7.232;2024-01-15T05:26:38;2.50;15.10
20174;DHT22;10246;50.620;7.232;2024-01-15T05:29:05;2.50;14.70
20174;DHT22;10246;50.620;7.232;2024-01-15T05:31:32;2.50;14.70
20174;DHT22;10246;50.620;7.232;2024-01-15T05:34:00;2.50;14.60
20174;DHT22;10246;50.620;7.232;2024-01-15T05:36:27;2.50;14.30
20174;DHT22;10246;50.620;7.232;2024-01-15T05:38:53;2.60;14.10
20174;DHT22;10246;50.620;7.232;2024-01-15T05:41:20;2.60;13.70
20174;DHT22;10246;50.620;7.232;2024-01-15T05:43:47;2.60;13.80
20174;DHT22;10246;50.620;7.232;2024-01-15T05:46:14;2.60;14.10
20174;DHT22;10246;50.620;7.232;2024-01-15T05:48:41;2.60;14.40
20174;DHT22;10246;50.620;7.232;2024-01-15T05:51:10;2.60;15.20
20174;DHT22;10246;50.620;7.232;2024-01-15T05:53:36;2.60;15.40
20174;DHT22;10246;50.620;7.232;2024-01-15T05:56:06;2.50;16.00
20174;DHT22;10246;50.620;7.232;2024-01-15T05:58:32;2.40;17.20
20174;DHT22;10246;50.620;7.232;2024-01-15T06:00:59;2.40;17.80
20174;DHT22;10246;50.620;7.232;2024-01-15T06:03:27;2.40;18.30
20174;DHT22;10246;50.620;7.232;2024-01-15T06:05:54;2.30;18.70
20174;DHT22;10246;50.620;7.232;2024-01-15T06:08:22;2.30;19.00
20174;DHT22;10246;50.620;7.232;2024-01-15T06:10:49;2.30;19.70
20174;DHT22;10246;50.620;7.232;2024-01-15T06:13:15;2.30;19.60
20174;DHT22;10246;50.620;7.232;2024-01-15T06:15:42;2.30;20.20
20174;DHT22;10246;50.620;7.232;2024-01-15T06:18:09;2.20;20.10
20174;DHT22;10246;50.620;7.232;2024-01-15T06:20:35;2.20;20.10
20174;DHT22;10246;50.620;7.232;2024-01-15T06:23:02;2.20;20.20
20174;DHT22;10246;50.620;7.232;2024-01-15T06:25:30;2.20;20.40
20174;DHT22;10246;50.620;7.232;2024-01-15T06:27:57;2.20;20.40
20174;DHT22;10246;50.620;7.232;2024-01-15T06:30:24;2.20;20.50
20174;DHT22;10246;50.620;7.232;2024-01-15T06:32:51;2.20;20.00
20174;DHT22;10246;50.620;7.232;2024-01-15T06:35:17;2.30;19.40
20174;DHT22;10246;50.620;7.232;2024-01-15T06:37:44;2.20;19.20
20174;DHT22;10246;50.620;7.232;2024-01-15T06:40:11;2.30;19.70
20174;DHT22;10246;50.620;7.232;2024-01-15T06:42:39;2.30;19.50
20174;DHT22;10246;50.620;7.232;2024-01-15T06:45:07;2.30;19.00
20174;DHT22;10246;50.620;7.232;2024-01-15T06:47:34;2.30;19.20
20174;DHT22;10246;50.620;7.232;2024-01-15T06:50:00;2.30;18.40
20174;DHT22;10246;50.620;7.232;2024-01-15T06:52:27;2.30;18.10
20174;DHT22;10246;50.620;7.232;2024-01-15T06:54:54;2.30;17.80
20174;DHT22;10246;50.620;7.232;2024-01-15T06:57:20;2.30;17.80
20174;DHT22;10246;50.620;7.232;2024-01-15T06:59:49;2.30;17.90
20174;DHT22;10246;50.620;7.232;2024-01-15T07:02:16;2.30;18.60
20174;DHT22;10246;50.620;7.232;2024-01-15T07:04:42;2.30;17.90
20174;DHT22;10246;50.620;7.232;2024-01-15T07:07:09;2.30;18.50
20174;DHT22;10246;50.620;7.232;2024-01-15T07:09:36;2.30;17.80
20174;DHT22;10246;50.620;7.232;2024-01-15T07:12:03;2.30;18.40
20174;DHT22;10246;50.620;7.232;2024-01-15T07:14:36;2.30;18.20
20174;DHT22;10246;50.620;7.232;2024-01-15T07:17:04;2.40;17.30
20174;DHT22;10246;50.620;7.232;2024-01-15T07:19:31;2.40;17.20
20174;DHT22;10246;50.620;7.232;2024-01-15T07:21:58;2.40;17.40
20174;DHT22;10246;50.620;7.232;2024-01-15T07:24:25;2.40;17.40
20174;DHT22;10246;50.620;7.232;2024-01-15T07:26:52;2.40;17.30
20174;DHT22;10246;50.620;7.232;2024-01-15T07:29:19;2.40;17.30
20174;DHT22;10246;50.620;7.232;2024-01-15T07:31:48;2.40;17.40
20174;DHT22;10246;50.620;7.232;2024-01-15T07:34:16;2.40;17.50
20174;DHT22;10246;50.620;7.232;2024-01-15T07:36:44;2.40;17.80
20174;DHT22;10246;50.620;7.232;2024-01-15T07:39:10;2.50;18.30
20174;DHT22;10246;50.620;7.232;2024-01-15T07:41:37;2.40;18.50
20174;DHT22;10246;50.620;7.232;2024-01-15T07:44:04;2.40;18.30
20174;DHT22;10246;50.620;7.232;2024-01-15T07:46:31;2.50;17.60
20174;DHT22;10246;50.620;7.232;2024-01-15T07:48:58;2.40;17.40
20174;DHT22;10246;50.620;7.232;2024-01-15T07:51:26;2.50;16.60
20174;DHT22;10246;50.620;7.232;2024-01-15T07:53:54;2.40;17.00
20174;DHT22;10246;50.620;7.232;2024-01-15T07:56:21;2.50;17.90
20174;DHT22;10246;50.620;7.232;2024-01-15T07:58:48;2.50;18.60
20174;DHT22;10246;50.620;7.232;2024-01-15T08:01:15;2.50;18.30
20174;DHT22;10246;50.620;7.232;2024-01-15T08:03:41;2.40;17.30
20174;DHT22;10246;50.620;7.232;2024-01-15T08:06:08;2.40;17.80
20174;DHT22;10246;50.620;7.232;2024-01-15T08:08:37;2.50;17.70
20174;DHT22;10246;50.620;7.232;2024-01-15T08:11:03;2.50;17.20
20174;DHT22;10246;50.620;7.232;2024-01-15T08:13:30;2.50;16.00
20174;DHT22;10246;50.620;7.232;2024-01-15T08:15:57;2.50;17.10
20174;DHT22;10246;50.620;7.232;2024-01-15T08:18:24;2.50;17.10
20174;DHT22;10246;50.620;7.232;2024-01-15T08:20:50;2.50;17.30
20174;DHT22;10246;50.620;7.232;2024-01-15T08:23:17;2.50;17.80
20174;DHT22;10246;50.620;7.232;2024-01-15T08:25:46;2.50;17.70
20174;DHT22;10246;50.620;7.232;2024-01-15T08:28:13;2.50;16.90
20174;DHT22;10246;50.620;7.232;2024-01-15T08:30:40;2.60;15.60
20174;DHT22;10246;50.620;7.232;2024-01-15T08:33:06;2.60;15.80
20174;DHT22;10246;50.620;7.232;2024-01-15T08:35:33;2.60;15.20
20174;DHT22;10246;50.620;7.232;2024-01-15T08:38:00;2.70;15.10
20174;DHT22;10246;50.620;7.232;2024-01-15T08:40:28;2.60;14.50
20174;DHT22;10246;50.620;7.232;2024-01-15T08:42:56;2.60;13.80
20174;DHT22;10246;50.620;7.232;2024-01-15T08:45:22;2.60;14.70
20174;DHT22;10246;50.620;7.232;2024-01-15T08:47:49;2.60;14.70
20174;DHT22;10246;50.620;7.232;2024-01-15T08:50:16;2.70;14.00
20174;DHT22;10246;50.620;7.232;2024-01-15T08:52:43;2.60;13.50
20174;DHT22;10246;50.620;7.232;2024-01-15T08:55:09;2.70;12.80
20174;DHT22;10246;50.620;7.232;2024-01-15T08:57:36;2.70;13.70
20174;DHT22;10246;50.620;7.232;2024-01-15T09:00:05;2.70;12.70
20174;DHT22;10246;50.620;7.232;2024-01-15T09:02:33;2.80;12.20
20174;DHT22;10246;50.620;7.232;2024-01-15T09:05:00;2.80;12.40
20174;DHT22;10246;50.620;7.232;2024-01-15T09:07:27;2.80;12.70
20174;DHT22;10246;50.620;7.232;2024-01-15T09:09:54;2.90;11.40
20174;DHT22;10246;50.620;7.232;2024-01-15T09:12:21;2.90;9.90
20174;DHT22;10246;50.620;7.232;2024-01-15T09:14:47;3.00;8.80
20174;DHT22;10246;50.620;7.232;2024-01-15T09:17:17;3.00;8.80
20174;DHT22;10246;50.620;7.232;2024-01-15T09:19:44;3.00;8.80
20174;DHT22;10246;50.620;7.232;2024-01-15T09:22:12;3.10;7.70
20174;DHT22;10246;50.620;7.232;2024-01-15T09:24:40;3.00;7.40
20174;DHT22;10246;50.620;7.232;2024-01-15T09:27:07;3.10;8.80
20174;DHT22;10246;50.620;7.232;2024-01-15T09:29:34;3.10;8.60
20174;DHT22;10246;50.620;7.232;2024-01-15T09:32:02;3.10;7.10
20174;DHT22;10246;50.620;7.232;2024-01-15T09:34:31;3.20;6.20
20174;DHT22;10246;50.620;7.232;2024-01-15T09:36:57;3.20;6.40
20174;DHT22;10246;50.620;7.232;2024-01-15T09:39:25;3.20;6.70
20174;DHT22;10246;50.620;7.232;2024-01-15T09:41:52;3.30;6.10
20174;DHT22;10246;50.620;7.232;2024-01-15T09:44:19;3.20;5.70
20174;DHT22;10246;50.620;7.232;2024-01-15T09:46:47;3.30;5.80
20174;DHT22;10246;50.620;7.232;2024-01-15T09:49:16;3.30;6.40
20174;DHT22;10246;50.620;7.232;2024-01-15T09:51:44;3.30;6.20
20174;DHT22;10246;50.620;7.232;2024-01-15T09:54:11;3.30;6.50
20174;DHT22;10246;50.620;7.232;2024-01-15T09:56:42;3.30;7.30
20174;DHT22;10246;50.620;7.232;2024-01-15T09:59:12;3.30;6.30
20174;DHT22;10246;50.620;7.232;2024-01-15T10:01:40;3.30;6.90
20174;DHT22;10246;50.620;7.232;2024-01-15T10:04:08;3.30;8.00
20174;DHT22;10246;50.620;7.232;2024-01-15T10:06:35;3.30;9.00
20174;DHT22;10246;50.620;7.232;2024-01-15T10:09:04;3.20;10.00
20174;DHT22;10246;50.620;7.232;2024-01-15T10:11:33;3.10;11.70
20174;DHT22;10246;50.620;7.232;2024-01-15T10:14:00;3.00;13.00
20174;DHT22;10246;50.620;7.232;2024-01-15T10:16:27;2.90;14.00
20174;DHT22;10246;50.620;7.232;2024-01-15T10:18:54;3.00;15.10
20174;DHT22;10246;50.620;7.232;2024-01-15T10:21:21;3.00;15.30
20174;DHT22;10246;50.620;7.232;2024-01-15T10:23:48;2.90;15.60
20174;DHT22;10246;50.620;7.232;2024-01-15T10:26:16;2.90;16.50
20174;DHT22;10246;50.620;7.232;2024-01-15T10:28:43;2.90;16.50
20174;DHT22;10246;50.620;7.232;2024-01-15T10:31:10;2.90;17.00
20174;DHT22;10246;50.620;7.232;2024-01-15T10:33:37;2.90;17.20
20174;DHT22;10246;50.620;7.232;2024-01-15T10:36:09;2.90;17.50
20174;DHT22;10246;50.620;7.232;2024-01-15T10:38:36;2.90;17.00
20174;DHT22;10246;50.620;7.232;2024-01-15T10:41:03;2.90;17.40
20174;DHT22;10246;50.620;7.232;2024-01-15T10:43:33;2.90;17.50
20174;DHT22;10246;50.620;7.232;2024-01-15T10:46:00;2.90;17.60
20174;DHT22;10246;50.620;7.232;2024-01-15T10:48:27;2.90;17.50
20174;DHT22;10246;50.620;7.232;2024-01-15T10:50:56;3.00;17.60
20174;DHT22;10246;50.620;7.232;2024-01-15T10:53:25;3.10;17.20
20174;DHT22;10246;50.620;7.232;2024-01-15T10:55:53;3.00;17.00
20174;DHT22;10246;50.620;7.232;2024-01-15T10:58:21;3.00;17.50
20174;DHT22;10246;50.620;7.232;2024-01-15T11:00:50;2.90;17.10
20174;DHT22;10246;50.620;7.232;2024-01-15T11:03:18;2.90;17.00
20174;DHT22;10246;50.620;7.232;2024-01-15T11:05:45;2.90;17.30
20174;DHT22;10246;50.620;7.232;2024-01-15T11:08:13;2.90;17.50
20174;DHT22;10246;50.620;7.232;2024-01-15T11:10:44;3.00;17.60
20174;DHT22;10246;50.620;7.232;2024-01-15T11:13:15;3.00;17.80
20174;DHT22;10246;50.620;7.232;2024-01-15T11:15:57;3.00;18.10
20174;DHT22;10246;50.620;7.232;2024-01-15T11:18:26;3.00;18.10
20174;DHT22;10246;50.620;7.232;2024-01-15T11:21:21;3.00;18.40
20174;DHT22;10246;50.620;7.232;2024-01-15T11:23:53;3.00;17.80
20174;DHT22;10246;50.620;7.232;2024-01-15T11:26:35;3.10;17.50
20174;DHT22;10246;50.620;7.232;2024-01-15T11:29:03;3.10;17.80
20174;DHT22;10246;50.620;7.232;2024-01-15T11:32:06;3.00;18.20
20174;DHT22;10246;50.620;7.232;2024-01-15T11:34:52;3.10;18.80
20174;DHT22;10246;50.620;7.232;2024-01-15T11:37:20;3.00;18.20
20174;DHT22;10246;50.620;7.232;2024-01-15T11:39:51;2.90;19.00
20174;DHT22;10246;50.620;7.232;2024-01-15T11:42:20;2.90;19.60
20174;DHT22;10246;50.620;7.232;2024-01-15T11:44:47;2.90;19.50
20174;DHT22;10246;50.620;7.232;2024-01-15T11:47:15;3.10;19.70
20174;DHT22;10246;50.620;7.232;2024-01-15T11:50:01;3.00;19.20
20174;DHT22;10246;50.620;7.232;2024-01-15T11:52:32;3.00;19.40
20174;DHT22;10246;50.620;7.232;2024-01-15T11:55:16;3.00;19.10
20174;DHT22;10246;50.620;7.232;2024-01-15T11:57:46;3.00;19.80
20174;DHT22;10246;50.620;7.232;2024-01-15T12:00:14;3.00;18.90
20174;DHT22;10246;50.620;7.232;2024-01-15T12:02:43;3.00;19.50
20174;DHT22;10246;50.620;7.232;2024-01-15T12:05:11;3.00;19.40
20174;DHT22;10246;50.620;7.232;2024-01-15T12:07:39;3.00;18.80
20174;DHT22;10246;50.620;7.232;2024-01-15T12:10:09;3.00;19.40
20174;DHT22;10246;50.620;7.232;2024-01-15T12:12:47;3.00;19.70
20174;DHT22;10246;50.620;7.232;2024-01-15T12:15:19;3.00;19.70
20174;DHT22;10246;50.620;7.232;2024-01-15T12:17:48;3.10;20.00
20174;DHT22;10246;50.620;7.232;2024-01-15T12:20:15;3.10;19.90
20174;DHT22;10246;50.620;7.232;2024-01-15T12:22:42;3.10;20.00
20174;DHT22;10246;50.620;7.232;2024-01-15T12:25:09;3.20;19.70
20174;DHT22;10246;50.620;7.232;2024-01-15T12:27:40;3.20;19.90
20174;DHT22;10246;50.620;7.232;2024-01-15T12:30:11;3.30;18.50
20174;DHT22;10246;50.620;7.232;2024-01-15T12:32:38;3.20;18.30
20174;DHT22;10246;50.620;7.232;2024-01-15T12:35:07;3.20;17.70
20174;DHT22;10246;50.620;7.232;2024-01-15T12:37:35;3.20;17.30
20174;DHT22;10246;50.620;7.232;2024-01-15T12:40:02;3.20;17.90
20174;DHT22;10246;50.620;7.232;2024-01-15T12:42:30;3.20;18.30
20174;DHT22;10246;50.620;7.232;2024-01-15T12:44:57;3.30;18.80
20174;DHT22;10246;50.620;7.232;2024-01-15T12:47:23;3.30;17.50
20174;DHT22;10246;50.620;7.232;2024-01-15T12:49:51;3.40;17.30
20174;DHT22;10246;50.620;7.232;2024-01-15T12:52:21;3.30;15.90
20174;DHT22;10246;50.620;7.232;2024-01-15T12:54:48;3.30;16.40
20174;DHT22;10246;50.620;7.232;2024-01-15T12:57:18;3.40;16.50
20174;DHT22;10246;50.620;7.232;2024-01-15T12:59:45;3.40;15.30
20174;DHT22;10246;50.620;7.232;2024-01-15T13:02:12;3.40;15.70
20174;DHT22;10246;50.620;7.232;2024-01-15T13:04:40;3.60;15.90
20174;DHT22;10246;50.620;7.232;2024-01-15T13:07:06;3.60;14.60
20174;DHT22;10246;50.620;7.232;2024-01-15T13:09:35;3.60;13.40
20174;DHT22;10246;50.620;7.232;2024-01-15T13:12:02;3.50;13.30
20174;DHT22;10246;50.620;7.232;2024-01-15T13:14:29;3.60;12.70
20174;DHT22;10246;50.620;7.232;2024-01-15T13:16:58;3.60;9.20
20174;DHT22;10246;50.620;7.232;2024-01-15T13:19:25;3.70;10.60
20174;DHT22;10246;50.620;7.232;2024-01-15T13:21:53;3.70;11.10
20174;DHT22;10246;50.620;7.232;2024-01-15T13:24:21;3.70;11.00
20174;DHT22;10246;50.620;7.232;2024-01-15T13:26:49;3.80;10.50
20174;DHT22;10246;50.620;7.232;2024-01-15T13:29:22;3.80;10.80
20174;DHT22;10246;50.620;7.232;2024-01-15T13:31:49;3.80;10.30
20174;DHT22;10246;50.620;7.232;2024-01-15T13:34:16;3.90;9.30
20174;DHT22;10246;50.620;7.232;2024-01-15T13:36:43;4.00;8.70
20174;DHT22;10246;50.620;7.232;2024-01-15T13:39:10;4.00;8.00
20174;DHT22;10246;50.620;7.232;2024-01-15T13:41:37;3.90;5.70
20174;DHT22;10246;50.620;7.232;2024-01-15T13:44:05;3.90;5.20
20174;DHT22;10246;50.620;7.232;2024-01-15T13:46:32;3.80;4.80
20174;DHT22;10246;50.620;7.232;2024-01-15T13:48:59;3.70;6.70
20174;DHT22;10246;50.620;7.232;2024-01-15T13:51:27;3.70;7.50
20174;DHT22;10246;50.620;7.232;2024-01-15T13:53:55;3.50;8.50
20174;DHT22;10246;50.620;7.232;2024-01-15T13:56:22;3.40;9.70
20174;DHT22;10246;50.620;7.232;2024-01-15T13:58:48;3.40;11.40
20174;DHT22;10246;50.620;7.232;2024-01-15T14:01:18;3.40;10.90
20174;DHT22;10246;50.620;7.232;2024-01-15T14:03:46;3.40;11.20
20174;DHT22;10246;50.620;7.232;2024-01-15T14:06:13;3.30;11.80
20174;DHT22;10246;50.620;7.232;2024-01-15T14:08:46;3.40;12.60
20174;DHT22;10246;50.620;7.232;2024-01-15T14:11:13;3.50;13.80
20174;DHT22;10246;50.620;7.232;2024-01-15T14:13:40;3.40;13.30
20174;DHT22;10246;50.620;7.232;2024-01-15T14:16:07;3.40;14.40
20174;DHT22;10246;50.620;7.232;2024-01-15T14:18:39;3.50;15.00
20174;DHT22;10246;50.620;7.232;2024-01-15T14:21:06;3.50;14.60
20174;DHT22;10246;50.620;7.232;2024-01-15T14:23:33;3.50;13.00
20174;DHT22;10246;50.620;7.232;2024-01-15T14:26:06;3.40;13.80
20174;DHT22;10246;50.620;7.232;2024-01-15T14:28:33;3.40;14.50
20174;DHT22;10246;50.620;7.232;2024-01-15T14:31:00;3.40;14.20
20174;DHT22;10246;50.620;7.232;2024-01-15T14:33:31;3.30;14.40
20174;DHT22;10246;50.620;7.232;2024-01-15T14:35:59;3.30;15.20
20174;DHT22;10246;50.620;7.232;2024-01-15T14:38:32;3.40;15.10
20174;DHT22;10246;50.620;7.232;2024-01-15T14:41:00;3.20;14.30
20174;DHT22;10246;50.620;7.232;2024-01-15T14:43:27;3.10;15.50
20174;DHT22;10246;50.620;7.232;2024-01-15T14:45:54;3.10;16.40
20174;DHT22;10246;50.620;7.232;2024-01-15T14:48:28;3.10;16.20
20174;DHT22;10246;50.620;7.232;2024-01-15T14:50:56;3.00;15.00
20174;DHT22;10246;50.620;7.232;2024-01-15T14:53:24;3.10;15.30
20174;DHT22;10246;50.620;7.232;2024-01-15T14:55:50;3.10;14.90
20174;DHT22;10246;50.620;7.232;2024-01-15T14:58:19;3.20;15.60
20174;DHT22;10246;50.620;7.232;2024-01-15T15:00:46;3.10;15.50
20174;DHT22;10246;50.620;7.232;2024-01-15T15:03:14;3.20;15.90
20174;DHT22;10246;50.620;7.232;2024-01-15T15:05:41;3.20;14.30
20174;DHT22;10246;50.620;7.232;2024-01-15T15:08:08;3.20;14.40
20174;DHT22;10246;50.620;7.232;2024-01-15T15:10:36;3.10;14.80
20174;DHT22;10246;50.620;7.232;2024-01-15T15:13:03;3.10;14.90
20174;DHT22;10246;50.620;7.232;2024-01-15T15:15:30;3.10;15.50
20174;DHT22;10246;50.620;7.232;2024-01-15T15:17:57;3.10;15.50
20174;DHT22;10246;50.620;7.232;2024-01-15T15:20:24;3.20;15.10
20174;DHT22;10246;50.620;7.232;2024-01-15T15:22:53;3.20;15.20
20174;DHT22;10246;50.620;7.232;2024-01-15T15:25:21;3.10;15.50
20174;DHT22;10246;50.620;7.232;2024-01-15T15:27:49;3.10;16.20
20174;DHT22;10246;50.620;7.232;2024-01-15T15:30:16;3.10;16.40
20174;DHT22;10246;50.620;7.232;2024-01-15T15:32:43;3.10;16.80
20174;DHT22;10246;50.620;7.232;2024-01-15T15:35:10;3.10;16.20
20174;DHT22;10246;50.620;7.232;2024-01-15T15:37:37;3.00;16.50
20174;DHT22;10246;50.620;7.232;2024-01-15T15:40:07;3.00;17.30
20174;DHT22;10246;50.620;7.232;2024-01-15T15:42:36;2.90;17.90
20174;DHT22;10246;50.620;7.232;2024-01-15T15:45:05;3.00;17.60
20174;DHT22;10246;50.620;7.232;2024-01-15T15:47:32;3.10;17.60
20174;DHT22;10246;50.620;7.232;2024-01-15T15:49:59;3.10;17.30